sensor_id;sensor_type;location;lat;lon;timestamp;pressure;altitude;pressure_sealevel;temperature
58929;BMP180;44713;53.378;10.022;2022-07-23T00:01:26;101555.00;;;17.00
58929;BMP180;44713;53.378;10.022;2022-07-23T00:03:53;101549.00;;;17.00
58929;BMP180;44713;53.378;10.022;2022-07-23T00:06:20;101538.00;;;17.00
58929;BMP180;44713;53.378;10.022;2022-07-23T00:08:45;101541.00;;;17.10
58929;BMP180;44713;53.378;10.022;2022-07-23T00:11:10;101540.00;;;17.10
58929;BMP180;44713;53.378;10.022;2022-07-23T00:13:36;101546.00;;;17.10
58929;BMP180;44713;53.378;10.022;2022-07-23T00:16:01;101545.00;;;17.10
58929;BMP180;44713;53.378;10.022;2022-07-23T00:18:27;101549.00;;;17.10
58929;BMP180;44713;53.378;10.022;2022-07-23T00:20:52;101542.00;;;17.10
58929;BMP180;44713;53.378;10.022;2022-07-23T00:23:18;101542.00;;;17.10
58929;BMP180;44713;53.378;10.022;2022-07-23T00:25:43;101545.00;;;17.00
58929;BMP180;44713;53.378;10.022;2022-07-23T00:28:10;101543.00;;;17.00
58929;BMP180;44713;53.378;10.022;2022-07-23T00:30:36;101540.00;;;16.90
58929;BMP180;44713;53.378;10.022;2022-07-23T00:33:04;101539.00;;;16.90
58929;BMP180;44713;53.378;10.022;2022-07-23T00:35:32;101524.00;;;16.90
58929;BMP180;44713;53.378;10.022;2022-07-23T00:37:59;101512.00;;;16.90
58929;BMP180;44713;53.378;10.022;2022-07-23T00:40:25;101520.00;;;17.00
58929;BMP180;44713;53.378;10.022;2022-07-23T00:42:51;101522.00;;;17.00
58929;BMP180;44713;53.378;10.022;2022-07-23T00:45:16;101513.00;;;17.00
58929;BMP180;44713;53.378;10.022;2022-07-23T00:47:42;101526.00;;;16.80
58929;BMP180;44713;53.378;10.022;2022-07-23T00:50:08;101524.00;;;16.80
58929;BMP180;44713;53.378;10.022;2022-07-23T00:52:34;101532.00;;;16.80
58929;BMP180;44713;53.378;10.022;2022-07-23T00:55:00;101529.00;;;16.90
58929;BMP180;44713;53.378;10.022;2022-07-23T00:57:26;101530.00;;;16.80
58929;BMP180;44713;53.378;10.022;2022-07-23T00:59:52;101533.00;;;16.80
58929;BMP180;44713;53.378;10.022;2022-07-23T01:02:18;101526.00;;;16.80
58929;BMP180;44713;53.378;10.022;2022-07-23T01:04:43;101527.00;;;16.80
58929;BMP180;44713;53.378;10.022;2022-07-23T01:07:09;101533.00;;;16.70
58929;BMP180;44713;53.378;10.022;2022-07-23T01:09:34;101520.00;;;16.80
58929;BMP180;44713;53.378;10.022;2022-07-23T01:12:00;101519.00;;;16.70
58929;BMP180;44713;53.378;10.022;2022-07-23T01:14:25;101519.00;;;16.70
58929;BMP180;44713;53.378;10.022;2022-07-23T01:16:51;101522.00;;;16.70
58929;BMP180;44713;53.378;10.022;2022-07-23T01:19:17;101529.00;;;16.70
58929;BMP180;44713;53.378;10.022;2022-07-23T01:21:45;101525.00;;;16.70
58929;BMP180;44713;53.378;10.022;2022-07-23T01:24:11;101519.00;;;16.70
58929;BMP180;44713;53.378;10.022;2022-07-23T01:26:45;101510.00;;;16.60
58929;BMP180;44713;53.378;10.022;2022-07-23T01:29:12;101518.00;;;16.60
58929;BMP180;44713;53.378;10.022;2022-07-23T01:31:39;101516.00;;;16.60
58929;BMP180;44713;53.378;10.022;2022-07-23T01:34:05;101519.00;;;16.60
58929;BMP180;44713;53.378;10.022;2022-07-23T01:36:33;101518.00;;;16.60
58929;BMP180;44713;53.378;10.022;2022-07-23T01:38:59;101514.00;;;16.50
58929;BMP180;44713;53.378;10.022;2022-07-23T01:41:25;101507.00;;;16.50
58929;BMP180;44713;53.378;10.022;2022-07-23T01:43:50;101513.00;;;16.40
58929;BMP180;44713;53.378;10.022;2022-07-23T01:46:17;101502.00;;;16.40
58929;BMP180;44713;53.378;10.022;2022-07-23T01:48:45;101497.00;;;16.30
58929;BMP180;44713;53.378;10.022;2022-07-23T01:51:33;101497.00;;;16.30
58929;BMP180;44713;53.378;10.022;2022-07-23T01:54:04;101494.00;;;16.30
58929;BMP180;44713;53.378;10.022;2022-07-23T01:56:29;101491.00;;;16.30
58929;BMP180;44713;53.378;10.022;2022-07-23T01:58:55;101484.00;;;16.20
58929;BMP180;44713;53.378;10.022;2022-07-23T02:01:21;101481.00;;;16.20
58929;BMP180;44713;53.378;10.022;2022-07-23T02:03:47;101468.00;;;16.10
58929;BMP180;44713;53.378;10.022;2022-07-23T02:06:12;101472.00;;;16.10
58929;BMP180;44713;53.378;10.022;2022-07-23T02:08:38;101466.00;;;16.00
58929;BMP180;44713;53.378;10.022;2022-07-23T02:11:03;101454.00;;;16.00
58929;BMP180;44713;53.378;10.022;2022-07-23T02:13:28;101452.00;;;15.90
58929;BMP180;44713;53.378;10.022;2022-07-23T02:15:54;101462.00;;;15.90
58929;BMP180;44713;53.378;10.022;2022-07-23T02:18:20;101460.00;;;15.80
58929;BMP180;44713;53.378;10.022;2022-07-23T02:20:45;101463.00;;;15.80
58929;BMP180;44713;53.378;10.022;2022-07-23T02:23:10;101463.00;;;15.70
58929;BMP180;44713;53.378;10.022;2022-07-23T02:25:37;101462.00;;;15.70
58929;BMP180;44713;53.378;10.022;2022-07-23T02:28:02;101464.00;;;15.70
58929;BMP180;44713;53.378;10.022;2022-07-23T02:30:28;101462.00;;;15.80
58929;BMP180;44713;53.378;10.022;2022-07-23T02:32:53;101465.00;;;15.70
58929;BMP180;44713;53.378;10.022;2022-07-23T02:35:19;101466.00;;;15.70
58929;BMP180;44713;53.378;10.022;2022-07-23T02:37:45;101459.00;;;15.60
58929;BMP180;44713;53.378;10.022;2022-07-23T02:40:10;101460.00;;;15.60
58929;BMP180;44713;53.378;10.022;2022-07-23T02:42:38;101462.00;;;15.50
58929;BMP180;44713;53.378;10.022;2022-07-23T02:45:04;101460.00;;;15.50
58929;BMP180;44713;53.378;10.022;2022-07-23T02:47:30;101446.00;;;15.50
58929;BMP180;44713;53.378;10.022;2022-07-23T02:49:57;101445.00;;;15.40
58929;BMP180;44713;53.378;10.022;2022-07-23T02:52:23;101441.00;;;15.40
58929;BMP180;44713;53.378;10.022;2022-07-23T02:54:48;101448.00;;;15.30
58929;BMP180;44713;53.378;10.022;2022-07-23T02:57:15;101444.00;;;15.20
58929;BMP180;44713;53.378;10.022;2022-07-23T02:59:41;101455.00;;;15.20
58929;BMP180;44713;53.378;10.022;2022-07-23T03:02:07;101449.00;;;15.20
58929;BMP180;44713;53.378;10.022;2022-07-23T03:04:32;101447.00;;;15.20
58929;BMP180;44713;53.378;10.022;2022-07-23T03:06:57;101456.00;;;15.00
58929;BMP180;44713;53.378;10.022;2022-07-23T03:09:24;101448.00;;;15.00
58929;BMP180;44713;53.378;10.022;2022-07-23T03:11:51;101454.00;;;15.10
58929;BMP180;44713;53.378;10.022;2022-07-23T03:14:18;101448.00;;;15.10
58929;BMP180;44713;53.378;10.022;2022-07-23T03:16:43;101445.00;;;15.10
58929;BMP180;44713;53.378;10.022;2022-07-23T03:19:09;101447.00;;;15.10
58929;BMP180;44713;53.378;10.022;2022-07-23T03:21:34;101448.00;;;15.00
58929;BMP180;44713;53.378;10.022;2022-07-23T03:24:04;101440.00;;;15.00
58929;BMP180;44713;53.378;10.022;2022-07-23T03:26:29;101445.00;;;15.00
58929;BMP180;44713;53.378;10.022;2022-07-23T03:28:55;101438.00;;;15.00
58929;BMP180;44713;53.378;10.022;2022-07-23T03:31:20;101440.00;;;15.00
58929;BMP180;44713;53.378;10.022;2022-07-23T03:33:45;101437.00;;;15.00
58929;BMP180;44713;53.378;10.022;2022-07-23T03:36:11;101451.00;;;15.00
58929;BMP180;44713;53.378;10.022;2022-07-23T03:38:40;101448.00;;;14.90
58929;BMP180;44713;53.378;10.022;2022-07-23T03:41:05;101443.00;;;14.90
58929;BMP180;44713;53.378;10.022;2022-07-23T03:43:31;101453.00;;;14.90
58929;BMP180;44713;53.378;10.022;2022-07-23T03:45:57;101442.00;;;15.00
58929;BMP180;44713;53.378;10.022;2022-07-23T03:48:22;101447.00;;;14.90
58929;BMP180;44713;53.378;10.022;2022-07-23T03:50:47;101458.00;;;15.00
58929;BMP180;44713;53.378;10.022;2022-07-23T03:53:13;101460.00;;;15.00
58929;BMP180;44713;53.378;10.022;2022-07-23T03:55:38;101461.00;;;15.00
58929;BMP180;44713;53.378;10.022;2022-07-23T03:58:03;101465.00;;;15.10
58929;BMP180;44713;53.378;10.022;2022-07-23T04:00:29;101465.00;;;15.10
58929;BMP180;44713;53.378;10.022;2022-07-23T04:02:54;101454.00;;;15.10
58929;BMP180;44713;53.378;10.022;2022-07-23T04:05:20;101451.00;;;15.20
58929;BMP180;44713;53.378;10.022;2022-07-23T04:07:50;101449.00;;;15.20
58929;BMP180;44713;53.378;10.022;2022-07-23T04:10:16;101457.00;;;15.30
58929;BMP180;44713;53.378;10.022;2022-07-23T04:12:42;101448.00;;;15.30
58929;BMP180;44713;53.378;10.022;2022-07-23T04:15:08;101451.00;;;15.40
58929;BMP180;44713;53.378;10.022;2022-07-23T04:17:34;101455.00;;;15.40
58929;BMP180;44713;53.378;10.022;2022-07-23T04:20:00;101461.00;;;15.40
58929;BMP180;44713;53.378;10.022;2022-07-23T04:22:32;101470.00;;;15.40
58929;BMP180;44713;53.378;10.022;2022-07-23T04:24:58;101462.00;;;15.30
58929;BMP180;44713;53.378;10.022;2022-07-23T04:27:23;101459.00;;;15.30
58929;BMP180;44713;53.378;10.022;2022-07-23T04:29:49;101465.00;;;15.20
58929;BMP180;44713;53.378;10.022;2022-07-23T04:32:14;101466.00;;;15.20
58929;BMP180;44713;53.378;10.022;2022-07-23T04:34:40;101466.00;;;15.10
58929;BMP180;44713;53.378;10.022;2022-07-23T04:37:06;101473.00;;;15.20
58929;BMP180;44713;53.378;10.022;2022-07-23T04:39:31;101470.00;;;15.20
58929;BMP180;44713;53.378;10.022;2022-07-23T04:41:57;101466.00;;;15.20
58929;BMP180;44713;53.378;10.022;2022-07-23T04:44:23;101468.00;;;15.30
58929;BMP180;44713;53.378;10.022;2022-07-23T04:46:48;101473.00;;;15.20
58929;BMP180;44713;53.378;10.022;2022-07-23T04:49:14;101469.00;;;15.20
58929;BMP180;44713;53.378;10.022;2022-07-23T04:51:39;101465.00;;;15.20
58929;BMP180;44713;53.378;10.022;2022-07-23T04:54:05;101466.00;;;15.30
58929;BMP180;44713;53.378;10.022;2022-07-23T04:56:30;101475.00;;;15.30
58929;BMP180;44713;53.378;10.022;2022-07-23T04:58:56;101477.00;;;15.30
58929;BMP180;44713;53.378;10.022;2022-07-23T05:01:21;101474.00;;;15.30
58929;BMP180;44713;53.378;10.022;2022-07-23T05:03:46;101472.00;;;15.30
58929;BMP180;44713;53.378;10.022;2022-07-23T05:06:14;101483.00;;;15.30
58929;BMP180;44713;53.378;10.022;2022-07-23T05:08:40;101483.00;;;15.30
58929;BMP180;44713;53.378;10.022;2022-07-23T05:11:05;101481.00;;;15.30
58929;BMP180;44713;53.378;10.022;2022-07-23T05:13:30;101490.00;;;15.20
58929;BMP180;44713;53.378;10.022;2022-07-23T05:15:56;101502.00;;;15.20
58929;BMP180;44713;53.378;10.022;2022-07-23T05:18:23;101503.00;;;15.20
58929;BMP180;44713;53.378;10.022;2022-07-23T05:20:48;101496.00;;;15.20
58929;BMP180;44713;53.378;10.022;2022-07-23T05:23:17;101489.00;;;15.20
58929;BMP180;44713;53.378;10.022;2022-07-23T05:25:42;101492.00;;;15.30
58929;BMP180;44713;53.378;10.022;2022-07-23T05:28:09;101496.00;;;15.40
58929;BMP180;44713;53.378;10.022;2022-07-23T05:30:34;101494.00;;;15.50
58929;BMP180;44713;53.378;10.022;2022-07-23T05:33:03;101494.00;;;15.40
58929;BMP180;44713;53.378;10.022;2022-07-23T05:35:29;101493.00;;;15.50
58929;BMP180;44713;53.378;10.022;2022-07-23T05:38:08;101495.00;;;15.60
58929;BMP180;44713;53.378;10.022;2022-07-23T05:40:34;101487.00;;;15.70
58929;BMP180;44713;53.378;10.022;2022-07-23T05:43:00;101487.00;;;15.80
58929;BMP180;44713;53.378;10.022;2022-07-23T05:45:26;101494.00;;;15.80
58929;BMP180;44713;53.378;10.022;2022-07-23T05:47:52;101496.00;;;15.80
58929;BMP180;44713;53.378;10.022;2022-07-23T05:50:25;101493.00;;;15.80
58929;BMP180;44713;53.378;10.022;2022-07-23T05:52:57;101494.00;;;15.80
58929;BMP180;44713;53.378;10.022;2022-07-23T05:55:42;101497.00;;;15.90
58929;BMP180;44713;53.378;10.022;2022-07-23T05:58:08;101495.00;;;16.00
58929;BMP180;44713;53.378;10.022;2022-07-23T06:00:34;101494.00;;;15.90
58929;BMP180;44713;53.378;10.022;2022-07-23T06:03:00;101497.00;;;15.90
58929;BMP180;44713;53.378;10.022;2022-07-23T06:05:28;101503.00;;;15.90
58929;BMP180;44713;53.378;10.022;2022-07-23T06:07:55;101502.00;;;16.00
58929;BMP180;44713;53.378;10.022;2022-07-23T06:10:22;101500.00;;;15.90
58929;BMP180;44713;53.378;10.022;2022-07-23T06:12:48;101498.00;;;16.00
58929;BMP180;44713;53.378;10.022;2022-07-23T06:15:13;101494.00;;;16.10
58929;BMP180;44713;53.378;10.022;2022-07-23T06:17:39;101492.00;;;16.10
58929;BMP180;44713;53.378;10.022;2022-07-23T06:20:06;101489.00;;;16.20
58929;BMP180;44713;53.378;10.022;2022-07-23T06:22:32;101493.00;;;16.20
58929;BMP180;44713;53.378;10.022;2022-07-23T06:24:57;101495.00;;;16.20
58929;BMP180;44713;53.378;10.022;2022-07-23T06:27:22;101494.00;;;16.30
58929;BMP180;44713;53.378;10.022;2022-07-23T06:29:49;101494.00;;;16.30
58929;BMP180;44713;53.378;10.022;2022-07-23T06:32:15;101499.00;;;16.50
58929;BMP180;44713;53.378;10.022;2022-07-23T06:34:42;101506.00;;;16.60
58929;BMP180;44713;53.378;10.022;2022-07-23T06:37:07;101499.00;;;16.60
58929;BMP180;44713;53.378;10.022;2022-07-23T06:39:33;101494.00;;;16.80
58929;BMP180;44713;53.378;10.022;2022-07-23T06:41:58;101492.00;;;16.80
58929;BMP180;44713;53.378;10.022;2022-07-23T06:44:35;101494.00;;;16.80
58929;BMP180;44713;53.378;10.022;2022-07-23T06:47:00;101491.00;;;16.80
58929;BMP180;44713;53.378;10.022;2022-07-23T06:49:26;101502.00;;;16.80
58929;BMP180;44713;53.378;10.022;2022-07-23T06:51:51;101505.00;;;16.80
58929;BMP180;44713;53.378;10.022;2022-07-23T06:54:16;101503.00;;;16.80
58929;BMP180;44713;53.378;10.022;2022-07-23T06:56:42;101510.00;;;16.90
58929;BMP180;44713;53.378;10.022;2022-07-23T06:59:09;101503.00;;;16.90
58929;BMP180;44713;53.378;10.022;2022-07-23T07:01:35;101514.00;;;17.00
58929;BMP180;44713;53.378;10.022;2022-07-23T07:04:00;101511.00;;;17.00
58929;BMP180;44713;53.378;10.022;2022-07-23T07:06:26;101517.00;;;17.00
58929;BMP180;44713;53.378;10.022;2022-07-23T07:08:51;101514.00;;;17.10
58929;BMP180;44713;53.378;10.022;2022-07-23T07:11:17;101508.00;;;17.20
58929;BMP180;44713;53.378;10.022;2022-07-23T07:13:42;101506.00;;;17.20
58929;BMP180;44713;53.378;10.022;2022-07-23T07:16:07;101503.00;;;17.20
58929;BMP180;44713;53.378;10.022;2022-07-23T07:18:33;101505.00;;;17.30
58929;BMP180;44713;53.378;10.022;2022-07-23T07:20:58;101512.00;;;17.20
58929;BMP180;44713;53.378;10.022;2022-07-23T07:23:23;101508.00;;;17.50
58929;BMP180;44713;53.378;10.022;2022-07-23T07:25:49;101506.00;;;17.60
58929;BMP180;44713;53.378;10.022;2022-07-23T07:28:14;101512.00;;;17.60
58929;BMP180;44713;53.378;10.022;2022-07-23T07:30:40;101509.00;;;17.60
58929;BMP180;44713;53.378;10.022;2022-07-23T07:33:05;101505.00;;;17.60
58929;BMP180;44713;53.378;10.022;2022-07-23T07:35:31;101510.00;;;17.70
58929;BMP180;44713;53.378;10.022;2022-07-23T07:37:58;101511.00;;;17.70
58929;BMP180;44713;53.378;10.022;2022-07-23T07:40:24;101507.00;;;17.90
58929;BMP180;44713;53.378;10.022;2022-07-23T07:42:51;101513.00;;;17.90
58929;BMP180;44713;53.378;10.022;2022-07-23T07:45:20;101512.00;;;17.80
58929;BMP180;44713;53.378;10.022;2022-07-23T07:47:46;101514.00;;;17.80
58929;BMP180;44713;53.378;10.022;2022-07-23T07:50:11;101522.00;;;17.90
58929;BMP180;44713;53.378;10.022;2022-07-23T07:52:37;101522.00;;;17.80
58929;BMP180;44713;53.378;10.022;2022-07-23T07:55:04;101518.00;;;17.90
58929;BMP180;44713;53.378;10.022;2022-07-23T07:57:30;101515.00;;;18.00
58929;BMP180;44713;53.378;10.022;2022-07-23T07:59:55;101511.00;;;18.00
58929;BMP180;44713;53.378;10.022;2022-07-23T08:02:20;101508.00;;;17.80
58929;BMP180;44713;53.378;10.022;2022-07-23T08:04:46;101509.00;;;17.80
58929;BMP180;44713;53.378;10.022;2022-07-23T08:07:11;101503.00;;;17.90
58929;BMP180;44713;53.378;10.022;2022-07-23T08:09:37;101507.00;;;18.20
58929;BMP180;44713;53.378;10.022;2022-07-23T08:12:02;101497.00;;;18.30
58929;BMP180;44713;53.378;10.022;2022-07-23T08:14:27;101509.00;;;18.30
58929;BMP180;44713;53.378;10.022;2022-07-23T08:16:53;101513.00;;;18.20
58929;BMP180;44713;53.378;10.022;2022-07-23T08:19:18;101512.00;;;18.20
58929;BMP180;44713;53.378;10.022;2022-07-23T08:21:43;101504.00;;;18.50
58929;BMP180;44713;53.378;10.022;2022-07-23T08:24:09;101503.00;;;18.40
58929;BMP180;44713;53.378;10.022;2022-07-23T08:26:34;101516.00;;;18.50
58929;BMP180;44713;53.378;10.022;2022-07-23T08:28:59;101510.00;;;18.60
58929;BMP180;44713;53.378;10.022;2022-07-23T08:31:25;101506.00;;;18.50
58929;BMP180;44713;53.378;10.022;2022-07-23T08:33:50;101513.00;;;18.70
58929;BMP180;44713;53.378;10.022;2022-07-23T08:36:17;101505.00;;;18.90
58929;BMP180;44713;53.378;10.022;2022-07-23T08:38:42;101512.00;;;18.80
58929;BMP180;44713;53.378;10.022;2022-07-23T08:41:09;101518.00;;;18.80
58929;BMP180;44713;53.378;10.022;2022-07-23T08:43:34;101523.00;;;18.80
58929;BMP180;44713;53.378;10.022;2022-07-23T08:46:02;101522.00;;;18.90
58929;BMP180;44713;53.378;10.022;2022-07-23T08:48:30;101529.00;;;18.70
58929;BMP180;44713;53.378;10.022;2022-07-23T08:50:58;101528.00;;;18.60
58929;BMP180;44713;53.378;10.022;2022-07-23T08:53:25;101530.00;;;18.70
58929;BMP180;44713;53.378;10.022;2022-07-23T08:55:53;101528.00;;;18.60
58929;BMP180;44713;53.378;10.022;2022-07-23T08:58:19;101521.00;;;18.80
58929;BMP180;44713;53.378;10.022;2022-07-23T09:00:45;101530.00;;;18.90
58929;BMP180;44713;53.378;10.022;2022-07-23T09:03:21;101530.00;;;19.00
58929;BMP180;44713;53.378;10.022;2022-07-23T09:05:47;101530.00;;;19.60
58929;BMP180;44713;53.378;10.022;2022-07-23T09:08:15;101524.00;;;19.40
58929;BMP180;44713;53.378;10.022;2022-07-23T09:10:59;101517.00;;;19.20
58929;BMP180;44713;53.378;10.022;2022-07-23T09:13:34;101527.00;;;19.20
58929;BMP180;44713;53.378;10.022;2022-07-23T09:16:06;101525.00;;;19.30
58929;BMP180;44713;53.378;10.022;2022-07-23T09:18:41;101528.00;;;19.30
58929;BMP180;44713;53.378;10.022;2022-07-23T09:21:09;101534.00;;;19.20
58929;BMP180;44713;53.378;10.022;2022-07-23T09:26:18;101533.00;;;19.10
58929;BMP180;44713;53.378;10.022;2022-07-23T09:28:59;101541.00;;;19.10
58929;BMP180;44713;53.378;10.022;2022-07-23T09:31:27;101544.00;;;19.10
58929;BMP180;44713;53.378;10.022;2022-07-23T09:34:07;101547.00;;;19.10
58929;BMP180;44713;53.378;10.022;2022-07-23T09:36:33;101550.00;;;19.10
58929;BMP180;44713;53.378;10.022;2022-07-23T09:38:59;101541.00;;;19.10
58929;BMP180;44713;53.378;10.022;2022-07-23T09:41:24;101534.00;;;19.20
58929;BMP180;44713;53.378;10.022;2022-07-23T09:43:54;101538.00;;;19.20
58929;BMP180;44713;53.378;10.022;2022-07-23T09:46:25;101538.00;;;19.30
58929;BMP180;44713;53.378;10.022;2022-07-23T09:48:55;101540.00;;;19.50
58929;BMP180;44713;53.378;10.022;2022-07-23T09:51:22;101530.00;;;19.60
58929;BMP180;44713;53.378;10.022;2022-07-23T09:54:20;101530.00;;;19.80
58929;BMP180;44713;53.378;10.022;2022-07-23T09:56:47;101527.00;;;20.00
58929;BMP180;44713;53.378;10.022;2022-07-23T09:59:16;101524.00;;;20.30
58929;BMP180;44713;53.378;10.022;2022-07-23T10:01:43;101535.00;;;20.50
58929;BMP180;44713;53.378;10.022;2022-07-23T10:04:11;101522.00;;;20.70
58929;BMP180;44713;53.378;10.022;2022-07-23T10:06:59;101522.00;;;21.10
58929;BMP180;44713;53.378;10.022;2022-07-23T10:09:44;101531.00;;;21.20
58929;BMP180;44713;53.378;10.022;2022-07-23T10:12:36;101529.00;;;20.70
58929;BMP180;44713;53.378;10.022;2022-07-23T10:15:06;101533.00;;;20.60
58929;BMP180;44713;53.378;10.022;2022-07-23T10:17:33;101532.00;;;20.10
58929;BMP180;44713;53.378;10.022;2022-07-23T10:19:58;101532.00;;;20.00
58929;BMP180;44713;53.378;10.022;2022-07-23T10:22:42;101541.00;;;19.90
58929;BMP180;44713;53.378;10.022;2022-07-23T10:28:03;101561.00;;;19.40
58929;BMP180;44713;53.378;10.022;2022-07-23T10:33:27;101567.00;;;19.20
58929;BMP180;44713;53.378;10.022;2022-07-23T10:36:21;101566.00;;;19.20
58929;BMP180;44713;53.378;10.022;2022-07-23T10:41:14;101568.00;;;19.20
58929;BMP180;44713;53.378;10.022;2022-07-23T10:43:39;101571.00;;;19.30
58929;BMP180;44713;53.378;10.022;2022-07-23T10:46:22;101568.00;;;19.30
58929;BMP180;44713;53.378;10.022;2022-07-23T10:49:21;101578.00;;;19.70
58929;BMP180;44713;53.378;10.022;2022-07-23T10:52:25;101576.00;;;19.80
58929;BMP180;44713;53.378;10.022;2022-07-23T10:57:49;101574.00;;;20.20
58929;BMP180;44713;53.378;10.022;2022-07-23T11:00:26;101572.00;;;20.30
58929;BMP180;44713;53.378;10.022;2022-07-23T11:02:55;101570.00;;;20.40
58929;BMP180;44713;53.378;10.022;2022-07-23T11:05:43;101581.00;;;20.40
58929;BMP180;44713;53.378;10.022;2022-07-23T11:08:12;101572.00;;;20.30
58929;BMP180;44713;53.378;10.022;2022-07-23T11:10:55;101569.00;;;20.30
58929;BMP180;44713;53.378;10.022;2022-07-23T11:13:37;101568.00;;;20.40
58929;BMP180;44713;53.378;10.022;2022-07-23T11:16:07;101562.00;;;20.30
58929;BMP180;44713;53.378;10.022;2022-07-23T11:26:43;101572.00;;;20.80
58929;BMP180;44713;53.378;10.022;2022-07-23T11:32:24;101561.00;;;20.90
58929;BMP180;44713;53.378;10.022;2022-07-23T11:34:51;101580.00;;;21.20
58929;BMP180;44713;53.378;10.022;2022-07-23T11:37:39;101565.00;;;21.10
58929;BMP180;44713;53.378;10.022;2022-07-23T11:40:11;101565.00;;;20.90
58929;BMP180;44713;53.378;10.022;2022-07-23T11:42:39;101573.00;;;20.80
58929;BMP180;44713;53.378;10.022;2022-07-23T11:45:06;101567.00;;;20.90
58929;BMP180;44713;53.378;10.022;2022-07-23T11:47:32;101569.00;;;20.90
58929;BMP180;44713;53.378;10.022;2022-07-23T11:50:00;101571.00;;;21.20
58929;BMP180;44713;53.378;10.022;2022-07-23T11:52:26;101572.00;;;21.20
58929;BMP180;44713;53.378;10.022;2022-07-23T11:54:57;101567.00;;;21.40
58929;BMP180;44713;53.378;10.022;2022-07-23T11:57:28;101574.00;;;21.00
58929;BMP180;44713;53.378;10.022;2022-07-23T12:00:01;101575.00;;;21.10
58929;BMP180;44713;53.378;10.022;2022-07-23T12:02:42;101571.00;;;21.10
58929;BMP180;44713;53.378;10.022;2022-07-23T12:05:11;101570.00;;;21.30
58929;BMP180;44713;53.378;10.022;2022-07-23T12:07:42;101572.00;;;21.30
58929;BMP180;44713;53.378;10.022;2022-07-23T12:10:25;101576.00;;;21.30
58929;BMP180;44713;53.378;10.022;2022-07-23T12:13:00;101576.00;;;21.60
58929;BMP180;44713;53.378;10.022;2022-07-23T12:15:31;101576.00;;;21.60
58929;BMP180;44713;53.378;10.022;2022-07-23T12:18:00;101576.00;;;21.40
58929;BMP180;44713;53.378;10.022;2022-07-23T12:20:29;101574.00;;;21.30
58929;BMP180;44713;53.378;10.022;2022-07-23T12:22:58;101576.00;;;21.60
58929;BMP180;44713;53.378;10.022;2022-07-23T12:25:27;101570.00;;;21.50
58929;BMP180;44713;53.378;10.022;2022-07-23T12:30:41;101584.00;;;21.10
58929;BMP180;44713;53.378;10.022;2022-07-23T12:33:08;101589.00;;;21.00
58929;BMP180;44713;53.378;10.022;2022-07-23T12:38:06;101578.00;;;21.60
58929;BMP180;44713;53.378;10.022;2022-07-23T12:40:34;101586.00;;;21.70
58929;BMP180;44713;53.378;10.022;2022-07-23T12:43:28;101583.00;;;22.00
58929;BMP180;44713;53.378;10.022;2022-07-23T12:46:02;101591.00;;;22.20
58929;BMP180;44713;53.378;10.022;2022-07-23T12:48:30;101591.00;;;22.10
58929;BMP180;44713;53.378;10.022;2022-07-23T12:51:14;101593.00;;;21.70
58929;BMP180;44713;53.378;10.022;2022-07-23T12:53:45;101585.00;;;21.90
58929;BMP180;44713;53.378;10.022;2022-07-23T12:56:17;101582.00;;;22.00
58929;BMP180;44713;53.378;10.022;2022-07-23T12:58:49;101587.00;;;22.10
58929;BMP180;44713;53.378;10.022;2022-07-23T13:06:33;101591.00;;;22.50
58929;BMP180;44713;53.378;10.022;2022-07-23T13:08:59;101592.00;;;22.40
58929;BMP180;44713;53.378;10.022;2022-07-23T13:11:25;101600.00;;;22.40
58929;BMP180;44713;53.378;10.022;2022-07-23T13:13:50;101596.00;;;22.00
58929;BMP180;44713;53.378;10.022;2022-07-23T13:16:16;101600.00;;;22.00
58929;BMP180;44713;53.378;10.022;2022-07-23T13:18:42;101605.00;;;22.00
58929;BMP180;44713;53.378;10.022;2022-07-23T13:21:08;101614.00;;;21.90
58929;BMP180;44713;53.378;10.022;2022-07-23T13:23:34;101619.00;;;21.90
58929;BMP180;44713;53.378;10.022;2022-07-23T13:25:59;101620.00;;;21.40
58929;BMP180;44713;53.378;10.022;2022-07-23T13:28:24;101622.00;;;21.30
58929;BMP180;44713;53.378;10.022;2022-07-23T13:30:51;101635.00;;;21.20
58929;BMP180;44713;53.378;10.022;2022-07-23T13:33:18;101627.00;;;21.10
58929;BMP180;44713;53.378;10.022;2022-07-23T13:35:44;101624.00;;;21.10
58929;BMP180;44713;53.378;10.022;2022-07-23T13:38:09;101631.00;;;21.20
58929;BMP180;44713;53.378;10.022;2022-07-23T13:40:39;101624.00;;;21.40
58929;BMP180;44713;53.378;10.022;2022-07-23T13:43:08;101625.00;;;21.60
58929;BMP180;44713;53.378;10.022;2022-07-23T13:45:33;101624.00;;;21.50
58929;BMP180;44713;53.378;10.022;2022-07-23T13:47:59;101626.00;;;21.70
58929;BMP180;44713;53.378;10.022;2022-07-23T13:50:24;101626.00;;;21.70
58929;BMP180;44713;53.378;10.022;2022-07-23T13:52:50;101613.00;;;22.00
58929;BMP180;44713;53.378;10.022;2022-07-23T13:55:15;101613.00;;;22.40
58929;BMP180;44713;53.378;10.022;2022-07-23T13:57:41;101608.00;;;22.30
58929;BMP180;44713;53.378;10.022;2022-07-23T14:00:07;101600.00;;;22.50
58929;BMP180;44713;53.378;10.022;2022-07-23T14:02:35;101608.00;;;22.70
58929;BMP180;44713;53.378;10.022;2022-07-23T14:05:02;101609.00;;;22.60
58929;BMP180;44713;53.378;10.022;2022-07-23T14:07:27;101617.00;;;22.40
58929;BMP180;44713;53.378;10.022;2022-07-23T14:09:53;101620.00;;;22.20
58929;BMP180;44713;53.378;10.022;2022-07-23T14:12:18;101624.00;;;21.90
58929;BMP180;44713;53.378;10.022;2022-07-23T14:14:44;101615.00;;;21.90
58929;BMP180;44713;53.378;10.022;2022-07-23T14:17:09;101622.00;;;21.90
58929;BMP180;44713;53.378;10.022;2022-07-23T14:19:35;101623.00;;;22.10
58929;BMP180;44713;53.378;10.022;2022-07-23T14:22:00;101618.00;;;22.40
58929;BMP180;44713;53.378;10.022;2022-07-23T14:24:26;101613.00;;;22.40